Zielona Gora, Poland
Current Conditions -  °F | °C
As of 11:00 PM on Friday 31 Oct 2014 (Local Time) from EPZG Reporting Station
Haze Haze  
Wind Chill: 48°   Ceiling: Unl
Heat Index: 48°   Visibility: 2.1mi
Dew Point: 46°   Wind: 2mph
Humidity: 93%   Direction: 120°ESE
Pressure: 30.24"   Gusts: NA
Location:  51.94°N, 15.49°E
Report Text: EPZG 312100Z 12002KT 3400 BR NSC 09/08 Q1024
Loading
Personal Weather Stations






























Interactive Weather Map
Tropical Storm Tracking
New forecast layout! Learn more

10-Day Weather Forecast

Advertisements
Track Severe Weather on mobile